Weather Models
Both GFS & NAM
00z 06z 12z 18z
24hr Precip
00z 06z 12z 18z
36hr Simulated radar
00z 06z 12z 18z
SKEWT Soundings
00z 12z
Current Conditions (Updated 3:49pm on 9/24/18)
Temperature
 69°
-0.44
70°  
62°  
0
10
20
30
40
50
60
70
80
90
100
Dew Point
54°
62°  
54°  
-20
-10
0
10
20
30
40
50
60
70
80
Heat Index
71°
72°  
69°  
30
40
50
60
70
80
90
100
110
120
130
Heat Index
Humidity
60%
95% 
58% 
0
10
20
30
40
50
60
70
80
90
100
Barometer
30.43
   Steady
30.43  
30.31  
28.00
28.30
28.60
28.90
29.20
29.50
29.80
30.10
30.40
30.70
31.00
Temperature
Dew Point
Humidity
Pressure
Wind
12mph
 SE
Daily Rain
.00
.05
.10
.15
.20
.25
.30
.35
.40
.45
.50
Rain Today
 0.07" 
Month Rain
0.00
0.50
1.00
1.50
2.00
2.50
3.00
3.50
4.00
4.50
5.00
Month Rain
 4.55" 
Year Rain
0.00
5.00
10.00
15.00
20.00
25.00
30.00
35.00
40.00
45.00
50.00
Year Rain
 40.64" 
Sun & Moon Data
Sunrise 6:52am
Sunset 6:56pm
Moonrise 7:06pm
Moonset 6:08am
Moon % 99%
Other Rain Data
Past Hour 0.00 Past 24 Hours 0.32
Past 3 Hours 0.00 Past 7 Days 2.42
Past 6 Hours 0.00
Cloud Height
3608


Current Front Map
Current Satellite map
7 Day Forecast
NWS Forecast for Philadelphia PA
National Weather Service Forecast for: Philadelphia PA
Issued by: National Weather Service Philadelphia, PA
Updated: 9:38 am EDT Sep 24, 2018

Philadelphia
 
This
Afternoon
This Afternoon: A chance of rain.  Cloudy, with a high near 67. East wind around 14 mph.  Chance of precipitation is 30%. New precipitation amounts of less than a tenth of an inch possible.
Chance Rain

Tonight

Tonight: Rain, mainly after 9pm.  Low around 62. East wind 11 to 13 mph.  Chance of precipitation is 80%. New precipitation amounts between a tenth and quarter of an inch possible.
Rain

Tuesday

Tuesday: Showers and possibly a thunderstorm before 2pm, then showers likely.  High near 77. South wind around 10 mph.  Chance of precipitation is 80%. New rainfall amounts between a quarter and half of an inch possible.
Showers

Tuesday
Night
Tuesday Night: A chance of showers.  Cloudy, with a low around 70. South wind 5 to 7 mph.  Chance of precipitation is 30%. New precipitation amounts of less than a tenth of an inch possible.
Chance
Showers

Wednesday

Wednesday: Showers and thunderstorms likely, mainly after 2pm.  Mostly cloudy, with a high near 83. South wind 5 to 9 mph.  Chance of precipitation is 60%. New rainfall amounts between a tenth and quarter of an inch, except higher amounts possible in thunderstorms.
Chance
Showers then
T-storms
Likely
Wednesday
Night
Wednesday Night: Showers and thunderstorms likely before 2am, then a chance of showers.  Mostly cloudy, with a low around 63. Chance of precipitation is 60%. New rainfall amounts between a tenth and quarter of an inch, except higher amounts possible in thunderstorms.
T-storms
Likely then
Chance
Showers
Thursday

Thursday: Partly sunny, with a high near 72.
Partly Sunny

Thursday
Night
Thursday Night: A chance of showers.  Mostly cloudy, with a low around 62. Chance of precipitation is 40%.
Chance
Showers

Friday

Friday: Partly sunny, with a high near 75.
Partly Sunny

Hi 67 °F Lo 62 °F Hi 77 °F Lo 70 °F Hi 83 °F Lo 63 °F Hi 72 °F Lo 62 °F Hi 75 °F

Hazardous Weather Outlook
 

This Afternoon
 
A chance of rain. Cloudy, with a high near 67. East wind around 14 mph. Chance of precipitation is 30%. New precipitation amounts of less than a tenth of an inch possible.
Tonight
 
Rain, mainly after 9pm. Low around 62. East wind 11 to 13 mph. Chance of precipitation is 80%. New precipitation amounts between a tenth and quarter of an inch possible.
Tuesday
 
Showers and possibly a thunderstorm before 2pm, then showers likely. High near 77. South wind around 10 mph. Chance of precipitation is 80%. New rainfall amounts between a quarter and half of an inch possible.
Tuesday Night
 
A chance of showers. Cloudy, with a low around 70. South wind 5 to 7 mph. Chance of precipitation is 30%. New precipitation amounts of less than a tenth of an inch possible.
Wednesday
 
Showers and thunderstorms likely, mainly after 2pm. Mostly cloudy, with a high near 83. South wind 5 to 9 mph. Chance of precipitation is 60%. New rainfall amounts between a tenth and quarter of an inch, except higher amounts possible in thunderstorms.
Wednesday Night
 
Showers and thunderstorms likely before 2am, then a chance of showers. Mostly cloudy, with a low around 63. Chance of precipitation is 60%. New rainfall amounts between a tenth and quarter of an inch, except higher amounts possible in thunderstorms.
Thursday
 
Partly sunny, with a high near 72.
Thursday Night
 
A chance of showers. Mostly cloudy, with a low around 62. Chance of precipitation is 40%.
Friday
 
Partly sunny, with a high near 75.
Friday Night
 
Partly cloudy, with a low around 58.
Saturday
 
Sunny, with a high near 75.
Saturday Night
 
Mostly clear, with a low around 59.
Sunday
 
Mostly sunny, with a high near 76.
Sunday Night
 
Partly cloudy, with a low around 60.
Monday
 
Partly sunny, with a high near 78.

 

Forecast from NOAA-NWS for Philadelphia PA.

Area Weather Current Conditions
Nearby METAR Reports

KPHL - Philadelphia, Pennsylvania
Updated: Mon, 24-Sep-2018 2:54pm EDT
Overcast
Overcast
 Wind from E
Wind: E 16 mph , 26 km/h, Gust: 23 mph , 37 km/h
Temperature: 66°F , 19°C
Dew Point: 55°F , 13°C
Humidity: 68%
Barometer: 30.40 inHg , 1029.5 hPa
Clouds: Overcast
Visibility: 10 miles , 16 km
Cloud details: Mostly Cloudy 3500 ft
Overcast 5000 ft
2018/09/24 18:54 KPHL 241854Z 08014G20KT 10SM BKN035 OVC050 19/13 A3040 RMK AO2 SLP295 T01940133
KMPO - Mt. Pocono, Pennsylvania
Updated: Mon, 24-Sep-2018 3:18pm EDT
Mostly Cloudy
Mostly Cloudy
 Wind from ESE
Wind: ESE 14 mph , 22 km/h, Gust: 22 mph , 35 km/h
Temperature: 63°F , 17°C
Dew Point: 50°F , 10°C
Humidity: 64%
Barometer: 30.45 inHg , 1031.2 hPa
Clouds: Mostly Cloudy
Visibility: 10 miles , 16 km
Cloud details: Mostly Cloudy 2900 ft
2018/09/24 19:18 KMPO 241918Z AUTO 12012G19KT 10SM BKN029 17/10 A3045 RMK AO2 T01670100
 
KACY - Atlantic City, New Jersey
Updated: Mon, 24-Sep-2018 2:54pm EDT
Light rain, Overcast
Light rain, Overcast
 Wind from ENE
Wind: ENE 16 mph , 26 km/h, Gust: 24 mph , 39 km/h
Temperature: 66°F , 19°C
Dew Point: 63°F , 17°C
Humidity: 88%
Barometer: 30.39 inHg , 1029.1 hPa
Summary: Light Rain
Clouds: Overcast
Visibility: 10 miles , 16 km
Cloud details: Overcast 2400 ft
2018/09/24 18:54 KACY 241854Z 07014G21KT 10SM -RA OVC024 19/17 A3039 RMK AO2 SLP289 P0002 T01890172
KMIV - Millville, New Jersey
Updated: Mon, 24-Sep-2018 3:51pm EDT
Light rain, Overcast
Light rain, Overcast
 Wind from ENE
Wind: ENE 9 mph , 15 km/h
Temperature: 64°F , 18°C
Dew Point: 63°F , 17°C
Humidity: 94%
Barometer: 30.38 inHg , 1028.8 hPa
Summary: Light Rain
Clouds: Overcast
Visibility: 10 miles , 16 km
Cloud details: Mostly Cloudy 1400 ft
Overcast 1900 ft
2018/09/24 19:51 KMIV 241951Z AUTO 07008KT 10SM -RA BKN014 OVC019 18/17 A3038 RMK AO2 P0002
 
KWWD - Wildwood, New Jersey
Updated: Mon, 24-Sep-2018 3:14pm EDT
Light rain, Overcast
Light rain, Overcast
 Wind from ENE
Wind: ENE 12 mph , 19 km/h, Gust: 24 mph , 39 km/h
Temperature: 66°F , 19°C
Dew Point: 61°F , 16°C
Humidity: 83%
Barometer: 30.36 inHg , 1028.1 hPa
Summary: Light Rain
Clouds: Overcast
Visibility: 10 miles , 16 km
Cloud details: Partly Cloudy 1800 ft
Overcast 3100 ft
2018/09/24 19:14 KWWD 241914Z AUTO 07010G21KT 10SM -RA SCT018 OVC031 19/16 A3036 RMK AO2 P0000
KDOV - Dover Afb, Delaware
Updated: Mon, 24-Sep-2018 1:50pm EDT
NOT Current
Light drizzle, Overcast
Light drizzle, Overcast
 Wind from ENE
Wind: ENE 18 mph , 30 km/h, Gust: 24 mph , 39 km/h
Temperature: 66°F , 19°C
Dew Point: 59°F , 15°C
Humidity: 78%
Barometer: 30.36 inHg , 1028.1 hPa
Summary: Light Drizzle
Clouds: Overcast
Visibility: 10 miles , 16 km
Cloud details: Overcast 2600 ft
2018/09/24 17:50 KDOV 241750Z AUTO 07016G21KT 10SM -DZ OVC026 19/15 A3036 RMK AO2 RAB14E26DZB50 SLP284 $
Severe Weather Map
Recent Forum Post
[Philadelphia] 2017 -2018 Winter snow forecast by JC December 06, 2017, 02:00:35 AM
[Philadelphia] Request for Philly Snow Data by JC February 14, 2017, 08:42:21 PM
[Philadelphia] 2016 -2017 Winter snow forecast by JC December 01, 2016, 04:56:31 AM
[Philadelphia] Winter forecast 2016-2017 by xyonist November 30, 2016, 01:14:08 PM
[Philadelphia] 102.7 last Saturday by JC August 20, 2016, 03:26:22 AM
[Philadelphia] 2015 -2016 Winter snow forecast by JC April 19, 2016, 09:42:40 AM
[Philadelphia] Latest Models on Weekend Storm (Photos) by JC January 23, 2016, 12:01:03 PM
[Philadelphia] Possible large snow storm for end of week ? by JC January 21, 2016, 09:17:47 AM